sensor_id;sensor_type;location;lat;lon;timestamp;temperature;humidity
6843;DHT22;3460;52.028;8.916;2022-07-30T00:01:44;15.90;99.90
6843;DHT22;3460;52.028;8.916;2022-07-30T00:04:10;15.90;99.90
6843;DHT22;3460;52.028;8.916;2022-07-30T00:06:37;15.80;99.90
6843;DHT22;3460;52.028;8.916;2022-07-30T00:09:04;15.90;99.90
6843;DHT22;3460;52.028;8.916;2022-07-30T00:11:31;15.90;99.90
6843;DHT22;3460;52.028;8.916;2022-07-30T00:13:59;15.90;99.90
6843;DHT22;3460;52.028;8.916;2022-07-30T00:16:26;15.90;99.90
6843;DHT22;3460;52.028;8.916;2022-07-30T00:18:52;15.90;99.90
6843;DHT22;3460;52.028;8.916;2022-07-30T00:21:19;15.90;99.90
6843;DHT22;3460;52.028;8.916;2022-07-30T00:23:46;15.90;99.90
6843;DHT22;3460;52.028;8.916;2022-07-30T00:26:12;15.90;99.90
6843;DHT22;3460;52.028;8.916;2022-07-30T00:28:39;15.80;99.90
6843;DHT22;3460;52.028;8.916;2022-07-30T00:31:07;15.80;99.90
6843;DHT22;3460;52.028;8.916;2022-07-30T00:33:33;15.80;99.90
6843;DHT22;3460;52.028;8.916;2022-07-30T00:36:00;15.80;99.90
6843;DHT22;3460;52.028;8.916;2022-07-30T00:38:26;15.80;99.90
6843;DHT22;3460;52.028;8.916;2022-07-30T00:40:53;15.80;99.90
6843;DHT22;3460;52.028;8.916;2022-07-30T00:43:20;15.80;99.90
6843;DHT22;3460;52.028;8.916;2022-07-30T00:45:46;15.80;99.90
6843;DHT22;3460;52.028;8.916;2022-07-30T00:48:15;15.80;99.90
6843;DHT22;3460;52.028;8.916;2022-07-30T00:50:41;15.80;99.90
6843;DHT22;3460;52.028;8.916;2022-07-30T00:53:08;15.80;99.90
6843;DHT22;3460;52.028;8.916;2022-07-30T00:55:35;15.80;99.90
6843;DHT22;3460;52.028;8.916;2022-07-30T00:58:02;15.80;99.90
6843;DHT22;3460;52.028;8.916;2022-07-30T01:00:28;15.80;99.90
6843;DHT22;3460;52.028;8.916;2022-07-30T01:02:55;15.80;99.90
6843;DHT22;3460;52.028;8.916;2022-07-30T01:05:23;15.80;99.90
6843;DHT22;3460;52.028;8.916;2022-07-30T01:07:50;15.80;99.90
6843;DHT22;3460;52.028;8.916;2022-07-30T01:10:16;15.90;99.90
6843;DHT22;3460;52.028;8.916;2022-07-30T01:12:44;15.90;99.90
6843;DHT22;3460;52.028;8.916;2022-07-30T01:15:11;15.90;99.90
6843;DHT22;3460;52.028;8.916;2022-07-30T01:17:38;15.90;99.90
6843;DHT22;3460;52.028;8.916;2022-07-30T01:20:07;15.90;99.90
6843;DHT22;3460;52.028;8.916;2022-07-30T01:22:44;15.90;99.90
6843;DHT22;3460;52.028;8.916;2022-07-30T01:25:19;15.80;99.90
6843;DHT22;3460;52.028;8.916;2022-07-30T01:27:49;15.80;99.90
6843;DHT22;3460;52.028;8.916;2022-07-30T01:30:19;15.90;99.90
6843;DHT22;3460;52.028;8.916;2022-07-30T01:32:48;15.80;99.90
6843;DHT22;3460;52.028;8.916;2022-07-30T01:35:17;15.80;99.90
6843;DHT22;3460;52.028;8.916;2022-07-30T01:37:46;15.80;99.90
6843;DHT22;3460;52.028;8.916;2022-07-30T01:40:13;15.90;99.90
6843;DHT22;3460;52.028;8.916;2022-07-30T01:42:41;15.80;99.90
6843;DHT22;3460;52.028;8.916;2022-07-30T01:45:11;15.90;99.90
6843;DHT22;3460;52.028;8.916;2022-07-30T01:47:40;15.90;99.90
6843;DHT22;3460;52.028;8.916;2022-07-30T01:50:11;15.90;99.90
6843;DHT22;3460;52.028;8.916;2022-07-30T01:52:40;15.90;99.90
6843;DHT22;3460;52.028;8.916;2022-07-30T01:55:08;15.90;99.90
6843;DHT22;3460;52.028;8.916;2022-07-30T01:57:36;15.90;99.90
6843;DHT22;3460;52.028;8.916;2022-07-30T02:00:06;15.90;99.90
6843;DHT22;3460;52.028;8.916;2022-07-30T02:02:35;15.90;99.90
6843;DHT22;3460;52.028;8.916;2022-07-30T02:05:04;15.90;99.90
6843;DHT22;3460;52.028;8.916;2022-07-30T02:07:35;15.90;99.90
6843;DHT22;3460;52.028;8.916;2022-07-30T02:10:07;16.00;99.90
6843;DHT22;3460;52.028;8.916;2022-07-30T02:12:37;16.10;99.90
6843;DHT22;3460;52.028;8.916;2022-07-30T02:15:12;16.10;99.90
6843;DHT22;3460;52.028;8.916;2022-07-30T02:17:43;16.10;99.90
6843;DHT22;3460;52.028;8.916;2022-07-30T02:20:11;16.20;99.90
6843;DHT22;3460;52.028;8.916;2022-07-30T02:22:41;16.00;99.90
6843;DHT22;3460;52.028;8.916;2022-07-30T02:25:09;15.90;99.90
6843;DHT22;3460;52.028;8.916;2022-07-30T02:27:39;15.90;99.90
6843;DHT22;3460;52.028;8.916;2022-07-30T02:30:09;15.80;99.90
6843;DHT22;3460;52.028;8.916;2022-07-30T02:32:38;15.80;99.90
6843;DHT22;3460;52.028;8.916;2022-07-30T02:35:12;15.80;99.90
6843;DHT22;3460;52.028;8.916;2022-07-30T02:37:40;15.80;99.90
6843;DHT22;3460;52.028;8.916;2022-07-30T02:40:09;15.80;99.90
6843;DHT22;3460;52.028;8.916;2022-07-30T02:42:37;15.80;99.90
6843;DHT22;3460;52.028;8.916;2022-07-30T02:45:05;15.80;99.90
6843;DHT22;3460;52.028;8.916;2022-07-30T02:47:33;15.80;99.90
6843;DHT22;3460;52.028;8.916;2022-07-30T02:50:01;15.90;99.90
6843;DHT22;3460;52.028;8.916;2022-07-30T02:52:31;15.90;99.90
6843;DHT22;3460;52.028;8.916;2022-07-30T02:54:59;15.90;99.90
6843;DHT22;3460;52.028;8.916;2022-07-30T02:57:27;15.90;99.90
6843;DHT22;3460;52.028;8.916;2022-07-30T02:59:55;15.90;99.90
6843;DHT22;3460;52.028;8.916;2022-07-30T03:02:22;15.90;99.90
6843;DHT22;3460;52.028;8.916;2022-07-30T03:04:51;15.80;99.90
6843;DHT22;3460;52.028;8.916;2022-07-30T03:07:18;15.80;99.90
6843;DHT22;3460;52.028;8.916;2022-07-30T03:09:47;15.80;99.90
6843;DHT22;3460;52.028;8.916;2022-07-30T03:12:15;15.80;99.90
6843;DHT22;3460;52.028;8.916;2022-07-30T03:14:42;15.80;99.90
6843;DHT22;3460;52.028;8.916;2022-07-30T03:17:10;15.70;99.90
6843;DHT22;3460;52.028;8.916;2022-07-30T03:19:38;15.70;99.90
6843;DHT22;3460;52.028;8.916;2022-07-30T03:22:06;15.70;99.90
6843;DHT22;3460;52.028;8.916;2022-07-30T03:24:34;15.70;99.90
6843;DHT22;3460;52.028;8.916;2022-07-30T03:27:03;15.70;99.90
6843;DHT22;3460;52.028;8.916;2022-07-30T03:29:31;15.70;99.90
6843;DHT22;3460;52.028;8.916;2022-07-30T03:31:59;15.60;99.90
6843;DHT22;3460;52.028;8.916;2022-07-30T03:34:27;15.60;99.90
6843;DHT22;3460;52.028;8.916;2022-07-30T03:36:53;15.60;99.90
6843;DHT22;3460;52.028;8.916;2022-07-30T03:39:21;15.60;99.90
6843;DHT22;3460;52.028;8.916;2022-07-30T03:41:49;15.60;99.90
6843;DHT22;3460;52.028;8.916;2022-07-30T03:44:17;15.60;99.90
6843;DHT22;3460;52.028;8.916;2022-07-30T03:46:45;15.60;99.90
6843;DHT22;3460;52.028;8.916;2022-07-30T03:49:15;15.60;99.90
6843;DHT22;3460;52.028;8.916;2022-07-30T03:51:42;15.60;99.90
6843;DHT22;3460;52.028;8.916;2022-07-30T03:54:09;15.60;99.90
6843;DHT22;3460;52.028;8.916;2022-07-30T03:56:37;15.60;99.90
6843;DHT22;3460;52.028;8.916;2022-07-30T03:59:04;15.60;99.90
6843;DHT22;3460;52.028;8.916;2022-07-30T04:01:32;15.60;99.90
6843;DHT22;3460;52.028;8.916;2022-07-30T04:04:06;15.60;99.90
6843;DHT22;3460;52.028;8.916;2022-07-30T04:06:33;15.60;99.90
6843;DHT22;3460;52.028;8.916;2022-07-30T04:09:04;15.50;99.90
6843;DHT22;3460;52.028;8.916;2022-07-30T04:11:31;15.60;99.90
6843;DHT22;3460;52.028;8.916;2022-07-30T04:13:58;15.60;99.90
6843;DHT22;3460;52.028;8.916;2022-07-30T04:16:36;15.60;99.90
6843;DHT22;3460;52.028;8.916;2022-07-30T04:19:06;15.60;99.90
6843;DHT22;3460;52.028;8.916;2022-07-30T04:21:35;15.50;99.90
6843;DHT22;3460;52.028;8.916;2022-07-30T04:24:04;15.60;99.90
6843;DHT22;3460;52.028;8.916;2022-07-30T04:26:33;15.60;99.90
6843;DHT22;3460;52.028;8.916;2022-07-30T04:29:00;15.60;99.90
6843;DHT22;3460;52.028;8.916;2022-07-30T04:31:28;15.60;99.90
6843;DHT22;3460;52.028;8.916;2022-07-30T04:34:00;15.60;99.90
6843;DHT22;3460;52.028;8.916;2022-07-30T04:36:27;15.60;99.90
6843;DHT22;3460;52.028;8.916;2022-07-30T04:38:54;15.60;99.90
6843;DHT22;3460;52.028;8.916;2022-07-30T04:41:21;15.70;99.90
6843;DHT22;3460;52.028;8.916;2022-07-30T04:43:48;15.70;99.90
6843;DHT22;3460;52.028;8.916;2022-07-30T04:46:16;15.70;99.90
6843;DHT22;3460;52.028;8.916;2022-07-30T04:48:43;15.80;99.90
6843;DHT22;3460;52.028;8.916;2022-07-30T04:51:17;15.90;99.90
6843;DHT22;3460;52.028;8.916;2022-07-30T04:53:44;15.90;99.90
6843;DHT22;3460;52.028;8.916;2022-07-30T04:56:13;15.90;99.90
6843;DHT22;3460;52.028;8.916;2022-07-30T04:58:40;15.90;99.90
6843;DHT22;3460;52.028;8.916;2022-07-30T05:01:08;15.80;99.90
6843;DHT22;3460;52.028;8.916;2022-07-30T05:03:35;15.80;99.90
6843;DHT22;3460;52.028;8.916;2022-07-30T05:06:04;15.70;99.90
6843;DHT22;3460;52.028;8.916;2022-07-30T05:08:33;15.70;99.90
6843;DHT22;3460;52.028;8.916;2022-07-30T05:10:59;15.80;99.90
6843;DHT22;3460;52.028;8.916;2022-07-30T05:13:26;15.80;99.90
6843;DHT22;3460;52.028;8.916;2022-07-30T05:15:52;15.80;99.90
6843;DHT22;3460;52.028;8.916;2022-07-30T05:18:19;15.70;99.90
6843;DHT22;3460;52.028;8.916;2022-07-30T05:20:46;15.80;99.90
6843;DHT22;3460;52.028;8.916;2022-07-30T05:23:13;15.80;99.90
6843;DHT22;3460;52.028;8.916;2022-07-30T05:25:40;15.80;99.90
6843;DHT22;3460;52.028;8.916;2022-07-30T05:28:08;15.90;99.90
6843;DHT22;3460;52.028;8.916;2022-07-30T05:30:34;15.80;99.90
6843;DHT22;3460;52.028;8.916;2022-07-30T05:33:02;15.80;99.90
6843;DHT22;3460;52.028;8.916;2022-07-30T05:35:28;15.80;99.90
6843;DHT22;3460;52.028;8.916;2022-07-30T05:37:55;15.80;99.90
6843;DHT22;3460;52.028;8.916;2022-07-30T05:40:22;15.80;99.90
6843;DHT22;3460;52.028;8.916;2022-07-30T05:42:50;16.00;99.90
6843;DHT22;3460;52.028;8.916;2022-07-30T05:45:16;16.10;99.90
6843;DHT22;3460;52.028;8.916;2022-07-30T05:47:43;16.10;99.90
6843;DHT22;3460;52.028;8.916;2022-07-30T05:50:10;16.10;99.90
6843;DHT22;3460;52.028;8.916;2022-07-30T05:52:37;16.10;99.90
6843;DHT22;3460;52.028;8.916;2022-07-30T05:55:04;16.10;99.90
6843;DHT22;3460;52.028;8.916;2022-07-30T05:57:33;16.10;99.90
6843;DHT22;3460;52.028;8.916;2022-07-30T06:00:02;16.20;99.90
6843;DHT22;3460;52.028;8.916;2022-07-30T06:02:30;16.20;99.90
6843;DHT22;3460;52.028;8.916;2022-07-30T06:04:56;16.20;99.90
6843;DHT22;3460;52.028;8.916;2022-07-30T06:07:23;16.20;99.90
6843;DHT22;3460;52.028;8.916;2022-07-30T06:09:50;16.30;99.90
6843;DHT22;3460;52.028;8.916;2022-07-30T06:12:16;16.30;99.90
6843;DHT22;3460;52.028;8.916;2022-07-30T06:14:43;16.30;99.90
6843;DHT22;3460;52.028;8.916;2022-07-30T06:17:11;16.30;99.90
6843;DHT22;3460;52.028;8.916;2022-07-30T06:19:37;16.30;99.90
6843;DHT22;3460;52.028;8.916;2022-07-30T06:22:04;16.30;99.90
6843;DHT22;3460;52.028;8.916;2022-07-30T06:24:31;16.40;99.90
6843;DHT22;3460;52.028;8.916;2022-07-30T06:26:57;16.50;99.90
6843;DHT22;3460;52.028;8.916;2022-07-30T06:29:24;16.50;99.90
6843;DHT22;3460;52.028;8.916;2022-07-30T06:31:50;16.50;99.90
6843;DHT22;3460;52.028;8.916;2022-07-30T06:34:18;16.50;99.90
6843;DHT22;3460;52.028;8.916;2022-07-30T06:36:45;16.50;99.90
6843;DHT22;3460;52.028;8.916;2022-07-30T06:39:12;16.50;99.90
6843;DHT22;3460;52.028;8.916;2022-07-30T06:41:38;16.50;99.90
6843;DHT22;3460;52.028;8.916;2022-07-30T06:44:05;16.50;99.90
6843;DHT22;3460;52.028;8.916;2022-07-30T06:46:31;16.50;99.90
6843;DHT22;3460;52.028;8.916;2022-07-30T06:48:58;16.50;99.90
6843;DHT22;3460;52.028;8.916;2022-07-30T06:51:26;16.50;99.90
6843;DHT22;3460;52.028;8.916;2022-07-30T06:53:53;16.60;99.90
6843;DHT22;3460;52.028;8.916;2022-07-30T06:56:19;16.60;99.90
6843;DHT22;3460;52.028;8.916;2022-07-30T06:58:46;16.70;99.90
6843;DHT22;3460;52.028;8.916;2022-07-30T07:01:12;16.80;99.90
6843;DHT22;3460;52.028;8.916;2022-07-30T07:03:39;16.80;99.90
6843;DHT22;3460;52.028;8.916;2022-07-30T07:06:06;16.90;99.90
6843;DHT22;3460;52.028;8.916;2022-07-30T07:08:35;16.90;99.90
6843;DHT22;3460;52.028;8.916;2022-07-30T07:11:02;16.90;99.90
6843;DHT22;3460;52.028;8.916;2022-07-30T07:13:29;17.00;99.90
6843;DHT22;3460;52.028;8.916;2022-07-30T07:15:56;17.10;99.90
6843;DHT22;3460;52.028;8.916;2022-07-30T07:18:22;17.10;99.90
6843;DHT22;3460;52.028;8.916;2022-07-30T07:20:49;17.30;99.90
6843;DHT22;3460;52.028;8.916;2022-07-30T07:23:15;17.20;99.90
6843;DHT22;3460;52.028;8.916;2022-07-30T07:25:43;17.30;99.90
6843;DHT22;3460;52.028;8.916;2022-07-30T07:28:10;17.40;99.90
6843;DHT22;3460;52.028;8.916;2022-07-30T07:30:37;17.50;99.90
6843;DHT22;3460;52.028;8.916;2022-07-30T07:33:03;17.60;99.90
6843;DHT22;3460;52.028;8.916;2022-07-30T07:35:30;17.70;99.90
6843;DHT22;3460;52.028;8.916;2022-07-30T07:37:56;17.80;99.90
6843;DHT22;3460;52.028;8.916;2022-07-30T07:40:23;17.90;99.90
6843;DHT22;3460;52.028;8.916;2022-07-30T07:42:51;18.00;99.90
6843;DHT22;3460;52.028;8.916;2022-07-30T07:45:18;18.20;99.90
6843;DHT22;3460;52.028;8.916;2022-07-30T07:47:46;18.30;99.90
6843;DHT22;3460;52.028;8.916;2022-07-30T07:50:15;18.40;99.90
6843;DHT22;3460;52.028;8.916;2022-07-30T07:52:42;18.50;99.90
6843;DHT22;3460;52.028;8.916;2022-07-30T07:55:09;18.60;99.90
6843;DHT22;3460;52.028;8.916;2022-07-30T07:57:40;18.90;99.90
6843;DHT22;3460;52.028;8.916;2022-07-30T08:00:09;19.10;99.90
6843;DHT22;3460;52.028;8.916;2022-07-30T08:02:36;18.90;99.90
6843;DHT22;3460;52.028;8.916;2022-07-30T08:05:04;18.90;99.90
6843;DHT22;3460;52.028;8.916;2022-07-30T08:07:31;19.10;99.90
6843;DHT22;3460;52.028;8.916;2022-07-30T08:09:58;19.20;99.90
6843;DHT22;3460;52.028;8.916;2022-07-30T08:12:24;19.40;99.90
6843;DHT22;3460;52.028;8.916;2022-07-30T08:14:51;19.50;99.90
6843;DHT22;3460;52.028;8.916;2022-07-30T08:17:19;19.60;99.90
6843;DHT22;3460;52.028;8.916;2022-07-30T08:19:46;19.70;99.90
6843;DHT22;3460;52.028;8.916;2022-07-30T08:22:12;19.80;99.90
6843;DHT22;3460;52.028;8.916;2022-07-30T08:24:39;20.00;99.90
6843;DHT22;3460;52.028;8.916;2022-07-30T08:27:06;20.10;99.90
6843;DHT22;3460;52.028;8.916;2022-07-30T08:29:33;20.10;99.90
6843;DHT22;3460;52.028;8.916;2022-07-30T08:32:00;20.10;99.90
6843;DHT22;3460;52.028;8.916;2022-07-30T08:34:28;20.20;99.90
6843;DHT22;3460;52.028;8.916;2022-07-30T08:36:54;20.30;99.90
6843;DHT22;3460;52.028;8.916;2022-07-30T08:39:21;20.50;99.90
6843;DHT22;3460;52.028;8.916;2022-07-30T08:41:48;20.40;99.90
6843;DHT22;3460;52.028;8.916;2022-07-30T08:44:16;20.20;99.90
6843;DHT22;3460;52.028;8.916;2022-07-30T08:46:45;20.40;99.90
6843;DHT22;3460;52.028;8.916;2022-07-30T08:49:12;20.50;99.90
6843;DHT22;3460;52.028;8.916;2022-07-30T08:51:41;20.70;99.90
6843;DHT22;3460;52.028;8.916;2022-07-30T08:54:08;20.80;99.90
6843;DHT22;3460;52.028;8.916;2022-07-30T08:56:36;21.10;99.90
6843;DHT22;3460;52.028;8.916;2022-07-30T08:59:02;21.20;99.90
6843;DHT22;3460;52.028;8.916;2022-07-30T09:01:29;21.30;99.90
6843;DHT22;3460;52.028;8.916;2022-07-30T09:03:56;21.50;99.90
6843;DHT22;3460;52.028;8.916;2022-07-30T09:06:23;21.50;99.90
6843;DHT22;3460;52.028;8.916;2022-07-30T09:08:51;21.50;99.90
6843;DHT22;3460;52.028;8.916;2022-07-30T09:11:17;21.50;99.90
6843;DHT22;3460;52.028;8.916;2022-07-30T09:13:44;21.60;99.90
6843;DHT22;3460;52.028;8.916;2022-07-30T09:16:18;21.70;99.90
6843;DHT22;3460;52.028;8.916;2022-07-30T09:18:45;21.60;99.90
6843;DHT22;3460;52.028;8.916;2022-07-30T09:21:14;21.60;99.90
6843;DHT22;3460;52.028;8.916;2022-07-30T09:23:55;21.70;99.90
6843;DHT22;3460;52.028;8.916;2022-07-30T09:26:22;21.70;99.90
6843;DHT22;3460;52.028;8.916;2022-07-30T09:28:49;21.50;99.90
6843;DHT22;3460;52.028;8.916;2022-07-30T09:31:16;21.70;99.90
6843;DHT22;3460;52.028;8.916;2022-07-30T09:33:44;22.00;99.90
6843;DHT22;3460;52.028;8.916;2022-07-30T09:36:12;22.10;99.90
6843;DHT22;3460;52.028;8.916;2022-07-30T09:38:44;22.30;99.90
6843;DHT22;3460;52.028;8.916;2022-07-30T09:41:14;22.40;99.90
6843;DHT22;3460;52.028;8.916;2022-07-30T09:43:44;22.50;99.90
6843;DHT22;3460;52.028;8.916;2022-07-30T09:46:11;22.50;99.90
6843;DHT22;3460;52.028;8.916;2022-07-30T09:48:38;22.60;99.90
6843;DHT22;3460;52.028;8.916;2022-07-30T09:51:04;22.50;99.90
6843;DHT22;3460;52.028;8.916;2022-07-30T09:53:31;22.60;99.90
6843;DHT22;3460;52.028;8.916;2022-07-30T09:55:58;22.60;99.90
6843;DHT22;3460;52.028;8.916;2022-07-30T09:58:38;22.70;99.90
6843;DHT22;3460;52.028;8.916;2022-07-30T10:01:05;22.60;99.90
6843;DHT22;3460;52.028;8.916;2022-07-30T10:03:31;22.70;99.90
6843;DHT22;3460;52.028;8.916;2022-07-30T10:05:59;22.60;99.90
6843;DHT22;3460;52.028;8.916;2022-07-30T10:08:38;22.90;99.90
6843;DHT22;3460;52.028;8.916;2022-07-30T10:11:06;23.00;99.90
6843;DHT22;3460;52.028;8.916;2022-07-30T10:13:37;23.10;99.90
6843;DHT22;3460;52.028;8.916;2022-07-30T10:16:04;23.30;99.90
6843;DHT22;3460;52.028;8.916;2022-07-30T10:18:31;23.30;99.90
6843;DHT22;3460;52.028;8.916;2022-07-30T10:21:00;23.10;99.90
6843;DHT22;3460;52.028;8.916;2022-07-30T10:23:27;23.30;99.90
6843;DHT22;3460;52.028;8.916;2022-07-30T10:25:55;23.20;99.90
6843;DHT22;3460;52.028;8.916;2022-07-30T10:28:22;23.20;99.90
6843;DHT22;3460;52.028;8.916;2022-07-30T10:30:52;23.30;99.90
6843;DHT22;3460;52.028;8.916;2022-07-30T10:33:21;23.20;99.90
6843;DHT22;3460;52.028;8.916;2022-07-30T10:35:48;23.10;99.90
6843;DHT22;3460;52.028;8.916;2022-07-30T10:38:17;23.00;99.90
6843;DHT22;3460;52.028;8.916;2022-07-30T10:40:47;22.90;99.90
6843;DHT22;3460;52.028;8.916;2022-07-30T10:43:35;23.00;99.90
6843;DHT22;3460;52.028;8.916;2022-07-30T10:46:10;22.80;99.90
6843;DHT22;3460;52.028;8.916;2022-07-30T10:48:38;22.80;99.90
6843;DHT22;3460;52.028;8.916;2022-07-30T10:51:04;22.70;99.90
6843;DHT22;3460;52.028;8.916;2022-07-30T10:53:33;22.50;99.90
6843;DHT22;3460;52.028;8.916;2022-07-30T10:56:11;22.60;99.90
6843;DHT22;3460;52.028;8.916;2022-07-30T10:58:56;22.70;99.90
6843;DHT22;3460;52.028;8.916;2022-07-30T11:01:25;22.90;99.90
6843;DHT22;3460;52.028;8.916;2022-07-30T11:04:19;23.00;99.90
6843;DHT22;3460;52.028;8.916;2022-07-30T11:06:46;23.30;99.90
6843;DHT22;3460;52.028;8.916;2022-07-30T11:09:35;23.40;99.90
6843;DHT22;3460;52.028;8.916;2022-07-30T11:12:02;23.60;99.90
6843;DHT22;3460;52.028;8.916;2022-07-30T11:14:56;23.80;99.90
6843;DHT22;3460;52.028;8.916;2022-07-30T11:17:59;23.80;99.90
6843;DHT22;3460;52.028;8.916;2022-07-30T11:20:26;23.50;99.90
6843;DHT22;3460;52.028;8.916;2022-07-30T11:22:53;23.20;99.90
6843;DHT22;3460;52.028;8.916;2022-07-30T11:25:39;23.10;99.90
6843;DHT22;3460;52.028;8.916;2022-07-30T11:28:35;22.90;99.90
6843;DHT22;3460;52.028;8.916;2022-07-30T11:31:02;22.80;99.90
6843;DHT22;3460;52.028;8.916;2022-07-30T11:33:31;23.00;99.90
6843;DHT22;3460;52.028;8.916;2022-07-30T11:36:10;23.10;99.90
6843;DHT22;3460;52.028;8.916;2022-07-30T11:38:57;23.00;99.90
6843;DHT22;3460;52.028;8.916;2022-07-30T11:41:25;23.20;99.90
6843;DHT22;3460;52.028;8.916;2022-07-30T11:44:25;23.10;99.90
6843;DHT22;3460;52.028;8.916;2022-07-30T11:46:52;23.20;99.90
6843;DHT22;3460;52.028;8.916;2022-07-30T11:49:20;23.40;99.90
6843;DHT22;3460;52.028;8.916;2022-07-30T11:51:47;23.60;99.90
6843;DHT22;3460;52.028;8.916;2022-07-30T11:54:14;23.50;99.90
6843;DHT22;3460;52.028;8.916;2022-07-30T11:56:47;23.50;99.90
6843;DHT22;3460;52.028;8.916;2022-07-30T11:59:14;23.60;99.90
6843;DHT22;3460;52.028;8.916;2022-07-30T12:01:41;23.70;99.90
6843;DHT22;3460;52.028;8.916;2022-07-30T12:04:08;23.70;99.90
6843;DHT22;3460;52.028;8.916;2022-07-30T12:06:43;23.90;99.90
6843;DHT22;3460;52.028;8.916;2022-07-30T12:09:10;24.10;99.90
6843;DHT22;3460;52.028;8.916;2022-07-30T12:11:37;24.10;99.90
6843;DHT22;3460;52.028;8.916;2022-07-30T12:14:04;24.00;99.90
6843;DHT22;3460;52.028;8.916;2022-07-30T12:16:31;23.90;99.90
6843;DHT22;3460;52.028;8.916;2022-07-30T12:19:00;23.70;99.90
6843;DHT22;3460;52.028;8.916;2022-07-30T12:21:27;23.70;99.90
6843;DHT22;3460;52.028;8.916;2022-07-30T12:23:56;23.50;99.90
6843;DHT22;3460;52.028;8.916;2022-07-30T12:26:24;23.60;99.90
6843;DHT22;3460;52.028;8.916;2022-07-30T12:28:51;23.60;99.90
6843;DHT22;3460;52.028;8.916;2022-07-30T12:31:19;23.60;99.90
6843;DHT22;3460;52.028;8.916;2022-07-30T12:33:46;23.40;99.90
6843;DHT22;3460;52.028;8.916;2022-07-30T12:36:23;23.30;99.90
6843;DHT22;3460;52.028;8.916;2022-07-30T12:38:51;23.30;99.90
6843;DHT22;3460;52.028;8.916;2022-07-30T12:41:20;23.20;99.90
6843;DHT22;3460;52.028;8.916;2022-07-30T12:43:48;23.20;99.90
6843;DHT22;3460;52.028;8.916;2022-07-30T12:46:17;23.10;99.90
6843;DHT22;3460;52.028;8.916;2022-07-30T12:48:55;23.00;99.90
6843;DHT22;3460;52.028;8.916;2022-07-30T12:51:22;22.90;99.90
6843;DHT22;3460;52.028;8.916;2022-07-30T12:53:50;22.70;99.90
6843;DHT22;3460;52.028;8.916;2022-07-30T12:56:20;22.70;99.90
6843;DHT22;3460;52.028;8.916;2022-07-30T12:58:47;22.70;99.90
6843;DHT22;3460;52.028;8.916;2022-07-30T13:01:14;22.60;99.90
6843;DHT22;3460;52.028;8.916;2022-07-30T13:03:41;22.60;99.90
6843;DHT22;3460;52.028;8.916;2022-07-30T13:06:14;22.50;99.90
6843;DHT22;3460;52.028;8.916;2022-07-30T13:08:48;22.30;99.90
6843;DHT22;3460;52.028;8.916;2022-07-30T13:11:16;22.30;99.90
6843;DHT22;3460;52.028;8.916;2022-07-30T13:13:44;22.40;99.90
6843;DHT22;3460;52.028;8.916;2022-07-30T13:16:11;22.20;99.90
6843;DHT22;3460;52.028;8.916;2022-07-30T13:18:38;22.30;99.90
6843;DHT22;3460;52.028;8.916;2022-07-30T13:21:06;22.20;99.90
6843;DHT22;3460;52.028;8.916;2022-07-30T13:23:33;22.10;99.90
6843;DHT22;3460;52.028;8.916;2022-07-30T13:26:00;22.10;99.90
6843;DHT22;3460;52.028;8.916;2022-07-30T13:28:28;22.00;99.90
6843;DHT22;3460;52.028;8.916;2022-07-30T13:30:57;21.90;99.90
6843;DHT22;3460;52.028;8.916;2022-07-30T13:33:25;21.90;99.90
6843;DHT22;3460;52.028;8.916;2022-07-30T13:35:51;22.00;99.90
6843;DHT22;3460;52.028;8.916;2022-07-30T13:38:18;22.10;99.90
6843;DHT22;3460;52.028;8.916;2022-07-30T13:40:45;22.10;99.90
6843;DHT22;3460;52.028;8.916;2022-07-30T13:43:12;22.10;99.90
6843;DHT22;3460;52.028;8.916;2022-07-30T13:45:39;22.10;99.90
6843;DHT22;3460;52.028;8.916;2022-07-30T13:48:07;22.20;99.90
6843;DHT22;3460;52.028;8.916;2022-07-30T13:50:34;22.20;99.90
6843;DHT22;3460;52.028;8.916;2022-07-30T13:53:00;22.20;99.90
6843;DHT22;3460;52.028;8.916;2022-07-30T13:55:27;22.20;99.90
6843;DHT22;3460;52.028;8.916;2022-07-30T13:57:54;22.20;99.90
6843;DHT22;3460;52.028;8.916;2022-07-30T14:00:21;22.20;99.90
6843;DHT22;3460;52.028;8.916;2022-07-30T14:02:48;22.20;99.90
6843;DHT22;3460;52.028;8.916;2022-07-30T14:05:17;22.20;99.90
6843;DHT22;3460;52.028;8.916;2022-07-30T14:07:43;22.20;99.90
6843;DHT22;3460;52.028;8.916;2022-07-30T14:10:10;22.20;99.90
6843;DHT22;3460;52.028;8.916;2022-07-30T14:12:37;22.20;99.90
6843;DHT22;3460;52.028;8.916;2022-07-30T14:15:05;22.30;99.90
6843;DHT22;3460;52.028;8.916;2022-07-30T14:17:33;22.30;99.90
6843;DHT22;3460;52.028;8.916;2022-07-30T14:20:00;22.40;99.90
6843;DHT22;3460;52.028;8.916;2022-07-30T14:22:28;22.60;99.90
6843;DHT22;3460;52.028;8.916;2022-07-30T14:24:55;22.70;99.90
6843;DHT22;3460;52.028;8.916;2022-07-30T14:27:21;22.70;99.90
6843;DHT22;3460;52.028;8.916;2022-07-30T14:29:48;22.70;99.90
6843;DHT22;3460;52.028;8.916;2022-07-30T14:32:14;22.60;99.90
6843;DHT22;3460;52.028;8.916;2022-07-30T14:34:41;22.50;99.90
6843;DHT22;3460;52.028;8.916;2022-07-30T14:37:08;22.40;99.90
6843;DHT22;3460;52.028;8.916;2022-07-30T14:39:36;22.20;99.90
6843;DHT22;3460;52.028;8.916;2022-07-30T14:42:03;22.20;99.90
6843;DHT22;3460;52.028;8.916;2022-07-30T14:44:30;22.20;99.90
6843;DHT22;3460;52.028;8.916;2022-07-30T14:46:57;22.20;99.90
6843;DHT22;3460;52.028;8.916;2022-07-30T14:49:24;22.20;99.90
6843;DHT22;3460;52.028;8.916;2022-07-30T14:51:51;22.20;99.90
6843;DHT22;3460;52.028;8.916;2022-07-30T14:54:17;22.20;99.90
6843;DHT22;3460;52.028;8.916;2022-07-30T14:56:46;22.20;99.90
6843;DHT22;3460;52.028;8.916;2022-07-30T14:59:12;22.30;99.90
6843;DHT22;3460;52.028;8.916;2022-07-30T15:01:39;22.20;99.90
6843;DHT22;3460;52.028;8.916;2022-07-30T15:04:06;22.20;99.90
6843;DHT22;3460;52.028;8.916;2022-07-30T15:06:34;22.20;99.90
6843;DHT22;3460;52.028;8.916;2022-07-30T15:09:01;22.20;99.90
6843;DHT22;3460;52.028;8.916;2022-07-30T15:11:28;22.20;99.90
6843;DHT22;3460;52.028;8.916;2022-07-30T15:13:57;22.20;99.90
6843;DHT22;3460;52.028;8.916;2022-07-30T15:16:23;22.10;99.90
6843;DHT22;3460;52.028;8.916;2022-07-30T15:18:50;22.20;99.90
6843;DHT22;3460;52.028;8.916;2022-07-30T15:21:17;22.20;99.90
6843;DHT22;3460;52.028;8.916;2022-07-30T15:23:43;22.30;99.90
6843;DHT22;3460;52.028;8.916;2022-07-30T15:26:10;22.30;99.90
6843;DHT22;3460;52.028;8.916;2022-07-30T15:28:36;22.30;99.90
6843;DHT22;3460;52.028;8.916;2022-07-30T15:31:04;22.30;99.90
6843;DHT22;3460;52.028;8.916;2022-07-30T15:33:31;22.40;99.90
6843;DHT22;3460;52.028;8.916;2022-07-30T15:35:58;22.50;99.90
6843;DHT22;3460;52.028;8.916;2022-07-30T15:38:24;22.60;99.90
6843;DHT22;3460;52.028;8.916;2022-07-30T15:40:51;22.80;99.90
6843;DHT22;3460;52.028;8.916;2022-07-30T15:43:18;23.10;99.90
6843;DHT22;3460;52.028;8.916;2022-07-30T15:45:44;23.30;99.90
6843;DHT22;3460;52.028;8.916;2022-07-30T15:48:12;23.60;99.90
6843;DHT22;3460;52.028;8.916;2022-07-30T15:50:39;23.80;99.90
6843;DHT22;3460;52.028;8.916;2022-07-30T15:53:08;24.00;99.90
6843;DHT22;3460;52.028;8.916;2022-07-30T15:55:34;24.20;99.90
6843;DHT22;3460;52.028;8.916;2022-07-30T15:58:01;24.40;99.90
6843;DHT22;3460;52.028;8.916;2022-07-30T16:00:28;24.60;99.90
6843;DHT22;3460;52.028;8.916;2022-07-30T16:02:55;24.80;99.90
6843;DHT22;3460;52.028;8.916;2022-07-30T16:05:23;24.80;99.90
6843;DHT22;3460;52.028;8.916;2022-07-30T16:07:50;24.70;99.90
6843;DHT22;3460;52.028;8.916;2022-07-30T16:10:16;24.60;99.90